sensor_id;sensor_type;location;lat;lon;timestamp;P1;durP1;ratioP1;P2;durP2;ratioP2
43146;SDS011;28752;48.266;7.402;2023-03-03T00:01:29;76.03;;;36.78;;
43146;SDS011;28752;48.266;7.402;2023-03-03T00:03:56;63.05;;;32.60;;
43146;SDS011;28752;48.266;7.402;2023-03-03T00:08:49;61.67;;;30.80;;
43146;SDS011;28752;48.266;7.402;2023-03-03T00:11:14;59.72;;;30.90;;
43146;SDS011;28752;48.266;7.402;2023-03-03T00:13:44;61.33;;;31.77;;
43146;SDS011;28752;48.266;7.402;2023-03-03T00:19:01;76.22;;;39.45;;
43146;SDS011;28752;48.266;7.402;2023-03-03T00:21:32;75.28;;;37.28;;
43146;SDS011;28752;48.266;7.402;2023-03-03T00:24:10;69.80;;;35.58;;
43146;SDS011;28752;48.266;7.402;2023-03-03T00:26:55;70.40;;;35.72;;
43146;SDS011;28752;48.266;7.402;2023-03-03T00:31:54;73.78;;;39.55;;
43146;SDS011;28752;48.266;7.402;2023-03-03T00:36:55;66.30;;;32.85;;
43146;SDS011;28752;48.266;7.402;2023-03-03T00:39:26;67.18;;;32.97;;
43146;SDS011;28752;48.266;7.402;2023-03-03T00:41:55;72.93;;;36.60;;
43146;SDS011;28752;48.266;7.402;2023-03-03T00:52:34;65.75;;;33.47;;
43146;SDS011;28752;48.266;7.402;2023-03-03T00:55:04;60.00;;;31.73;;
43146;SDS011;28752;48.266;7.402;2023-03-03T00:57:30;60.42;;;31.55;;
43146;SDS011;28752;48.266;7.402;2023-03-03T00:59:56;59.08;;;30.65;;
43146;SDS011;28752;48.266;7.402;2023-03-03T01:02:21;63.83;;;30.90;;
43146;SDS011;28752;48.266;7.402;2023-03-03T01:04:49;61.20;;;31.40;;
43146;SDS011;28752;48.266;7.402;2023-03-03T01:07:15;59.70;;;31.02;;
43146;SDS011;28752;48.266;7.402;2023-03-03T01:09:41;59.95;;;31.65;;
43146;SDS011;28752;48.266;7.402;2023-03-03T01:12:06;57.67;;;29.75;;
43146;SDS011;28752;48.266;7.402;2023-03-03T01:14:32;55.47;;;29.50;;
43146;SDS011;28752;48.266;7.402;2023-03-03T01:16:58;64.00;;;32.90;;
43146;SDS011;28752;48.266;7.402;2023-03-03T01:19:23;56.90;;;29.73;;
43146;SDS011;28752;48.266;7.402;2023-03-03T01:21:49;63.92;;;31.88;;
43146;SDS011;28752;48.266;7.402;2023-03-03T01:24:15;67.40;;;32.55;;
43146;SDS011;28752;48.266;7.402;2023-03-03T01:26:40;63.70;;;31.97;;
43146;SDS011;28752;48.266;7.402;2023-03-03T01:29:06;60.63;;;29.33;;
43146;SDS011;28752;48.266;7.402;2023-03-03T01:31:32;57.00;;;29.73;;
43146;SDS011;28752;48.266;7.402;2023-03-03T01:33:57;59.00;;;29.25;;
43146;SDS011;28752;48.266;7.402;2023-03-03T01:36:23;59.47;;;28.60;;
43146;SDS011;28752;48.266;7.402;2023-03-03T01:38:49;52.28;;;29.52;;
43146;SDS011;28752;48.266;7.402;2023-03-03T01:41:15;52.60;;;28.60;;
43146;SDS011;28752;48.266;7.402;2023-03-03T01:43:44;57.90;;;28.23;;
43146;SDS011;28752;48.266;7.402;2023-03-03T01:48:48;54.60;;;28.50;;
43146;SDS011;28752;48.266;7.402;2023-03-03T01:51:25;55.20;;;28.35;;
43146;SDS011;28752;48.266;7.402;2023-03-03T01:53:55;55.78;;;27.73;;
43146;SDS011;28752;48.266;7.402;2023-03-03T01:56:23;60.17;;;29.25;;
43146;SDS011;28752;48.266;7.402;2023-03-03T01:59:06;51.42;;;28.75;;
43146;SDS011;28752;48.266;7.402;2023-03-03T02:01:39;55.83;;;28.90;;
43146;SDS011;28752;48.266;7.402;2023-03-03T02:04:06;51.53;;;26.60;;
43146;SDS011;28752;48.266;7.402;2023-03-03T02:06:33;52.80;;;27.42;;
43146;SDS011;28752;48.266;7.402;2023-03-03T02:09:04;54.22;;;29.00;;
43146;SDS011;28752;48.266;7.402;2023-03-03T02:11:35;57.38;;;28.55;;
43146;SDS011;28752;48.266;7.402;2023-03-03T02:14:02;57.75;;;29.58;;
43146;SDS011;28752;48.266;7.402;2023-03-03T02:16:27;56.35;;;29.00;;
43146;SDS011;28752;48.266;7.402;2023-03-03T02:18:53;52.70;;;28.30;;
43146;SDS011;28752;48.266;7.402;2023-03-03T02:26:21;58.40;;;29.13;;
43146;SDS011;28752;48.266;7.402;2023-03-03T02:28:51;59.67;;;30.38;;
43146;SDS011;28752;48.266;7.402;2023-03-03T02:31:18;54.75;;;28.55;;
43146;SDS011;28752;48.266;7.402;2023-03-03T02:33:46;56.60;;;30.85;;
43146;SDS011;28752;48.266;7.402;2023-03-03T02:36:14;58.25;;;29.90;;
43146;SDS011;28752;48.266;7.402;2023-03-03T02:38:48;56.25;;;29.65;;
43146;SDS011;28752;48.266;7.402;2023-03-03T02:44:11;56.78;;;29.63;;
43146;SDS011;28752;48.266;7.402;2023-03-03T02:46:43;54.72;;;29.02;;
43146;SDS011;28752;48.266;7.402;2023-03-03T02:49:12;62.00;;;31.20;;
43146;SDS011;28752;48.266;7.402;2023-03-03T02:51:39;54.53;;;29.52;;
43146;SDS011;28752;48.266;7.402;2023-03-03T02:54:06;53.92;;;28.55;;
43146;SDS011;28752;48.266;7.402;2023-03-03T02:56:32;60.65;;;31.30;;
43146;SDS011;28752;48.266;7.402;2023-03-03T02:58:58;63.47;;;30.97;;
43146;SDS011;28752;48.266;7.402;2023-03-03T03:01:24;52.78;;;29.73;;
43146;SDS011;28752;48.266;7.402;2023-03-03T03:03:49;60.87;;;30.07;;
43146;SDS011;28752;48.266;7.402;2023-03-03T03:06:15;56.20;;;30.10;;
43146;SDS011;28752;48.266;7.402;2023-03-03T03:08:40;67.03;;;30.07;;
43146;SDS011;28752;48.266;7.402;2023-03-03T03:11:05;54.20;;;28.80;;
43146;SDS011;28752;48.266;7.402;2023-03-03T03:13:32;55.30;;;29.55;;
43146;SDS011;28752;48.266;7.402;2023-03-03T03:15:58;53.13;;;29.10;;
43146;SDS011;28752;48.266;7.402;2023-03-03T03:23:16;55.00;;;27.33;;
43146;SDS011;28752;48.266;7.402;2023-03-03T03:28:10;56.20;;;28.17;;
43146;SDS011;28752;48.266;7.402;2023-03-03T03:30:37;53.85;;;28.77;;
43146;SDS011;28752;48.266;7.402;2023-03-03T03:33:03;55.88;;;28.63;;
43146;SDS011;28752;48.266;7.402;2023-03-03T03:35:28;55.17;;;28.90;;
43146;SDS011;28752;48.266;7.402;2023-03-03T03:37:53;58.67;;;30.13;;
43146;SDS011;28752;48.266;7.402;2023-03-03T03:40:19;59.93;;;30.20;;
43146;SDS011;28752;48.266;7.402;2023-03-03T03:42:44;57.83;;;29.87;;
43146;SDS011;28752;48.266;7.402;2023-03-03T03:45:10;61.10;;;31.37;;
43146;SDS011;28752;48.266;7.402;2023-03-03T03:47:39;54.53;;;29.08;;
43146;SDS011;28752;48.266;7.402;2023-03-03T03:50:05;55.65;;;29.23;;
43146;SDS011;28752;48.266;7.402;2023-03-03T03:52:31;57.20;;;29.52;;
43146;SDS011;28752;48.266;7.402;2023-03-03T03:54:56;56.63;;;28.77;;
43146;SDS011;28752;48.266;7.402;2023-03-03T03:57:21;56.30;;;28.87;;
43146;SDS011;28752;48.266;7.402;2023-03-03T03:59:48;59.10;;;29.40;;
43146;SDS011;28752;48.266;7.402;2023-03-03T04:02:14;55.65;;;30.13;;
43146;SDS011;28752;48.266;7.402;2023-03-03T04:04:39;53.37;;;27.80;;
43146;SDS011;28752;48.266;7.402;2023-03-03T04:07:05;57.83;;;30.13;;
43146;SDS011;28752;48.266;7.402;2023-03-03T04:09:30;55.33;;;29.47;;
43146;SDS011;28752;48.266;7.402;2023-03-03T04:11:55;69.27;;;35.80;;
43146;SDS011;28752;48.266;7.402;2023-03-03T04:14:21;66.37;;;35.27;;
43146;SDS011;28752;48.266;7.402;2023-03-03T04:16:46;58.87;;;31.00;;
43146;SDS011;28752;48.266;7.402;2023-03-03T04:19:11;61.30;;;33.57;;
43146;SDS011;28752;48.266;7.402;2023-03-03T04:21:37;58.13;;;31.40;;
43146;SDS011;28752;48.266;7.402;2023-03-03T04:24:02;61.27;;;32.00;;
43146;SDS011;28752;48.266;7.402;2023-03-03T04:26:27;60.63;;;32.43;;
43146;SDS011;28752;48.266;7.402;2023-03-03T04:28:53;64.37;;;34.27;;
43146;SDS011;28752;48.266;7.402;2023-03-03T04:31:18;62.97;;;32.17;;
43146;SDS011;28752;48.266;7.402;2023-03-03T04:33:44;59.13;;;32.03;;
43146;SDS011;28752;48.266;7.402;2023-03-03T04:36:10;62.28;;;32.35;;
43146;SDS011;28752;48.266;7.402;2023-03-03T04:38:36;59.80;;;32.15;;
43146;SDS011;28752;48.266;7.402;2023-03-03T04:41:01;54.43;;;30.47;;
43146;SDS011;28752;48.266;7.402;2023-03-03T04:43:27;58.38;;;31.23;;
43146;SDS011;28752;48.266;7.402;2023-03-03T04:45:52;59.47;;;31.60;;
43146;SDS011;28752;48.266;7.402;2023-03-03T04:48:17;60.17;;;30.47;;
43146;SDS011;28752;48.266;7.402;2023-03-03T04:50:43;57.33;;;30.77;;
43146;SDS011;28752;48.266;7.402;2023-03-03T04:53:08;59.40;;;31.88;;
43146;SDS011;28752;48.266;7.402;2023-03-03T04:55:35;59.85;;;31.77;;
43146;SDS011;28752;48.266;7.402;2023-03-03T04:58:02;58.00;;;31.00;;
43146;SDS011;28752;48.266;7.402;2023-03-03T05:02:53;55.08;;;30.13;;
43146;SDS011;28752;48.266;7.402;2023-03-03T05:05:18;59.63;;;31.90;;
43146;SDS011;28752;48.266;7.402;2023-03-03T05:07:44;57.30;;;31.60;;
43146;SDS011;28752;48.266;7.402;2023-03-03T05:10:09;56.47;;;30.10;;
43146;SDS011;28752;48.266;7.402;2023-03-03T05:12:35;57.55;;;31.70;;
43146;SDS011;28752;48.266;7.402;2023-03-03T05:15:01;61.60;;;31.08;;
43146;SDS011;28752;48.266;7.402;2023-03-03T05:17:27;57.33;;;29.17;;
43146;SDS011;28752;48.266;7.402;2023-03-03T05:19:52;61.53;;;31.75;;
43146;SDS011;28752;48.266;7.402;2023-03-03T05:22:18;56.00;;;30.08;;
43146;SDS011;28752;48.266;7.402;2023-03-03T05:24:43;61.20;;;31.07;;
43146;SDS011;28752;48.266;7.402;2023-03-03T05:27:12;60.95;;;30.55;;
43146;SDS011;28752;48.266;7.402;2023-03-03T05:29:38;58.63;;;30.52;;
43146;SDS011;28752;48.266;7.402;2023-03-03T05:32:03;58.73;;;30.60;;
43146;SDS011;28752;48.266;7.402;2023-03-03T05:34:29;64.47;;;30.45;;
43146;SDS011;28752;48.266;7.402;2023-03-03T05:36:54;55.80;;;30.87;;
43146;SDS011;28752;48.266;7.402;2023-03-03T05:39:20;64.40;;;31.50;;
43146;SDS011;28752;48.266;7.402;2023-03-03T05:41:45;54.83;;;28.97;;
43146;SDS011;28752;48.266;7.402;2023-03-03T05:44:10;54.83;;;28.10;;
43146;SDS011;28752;48.266;7.402;2023-03-03T05:46:36;56.17;;;29.77;;
43146;SDS011;28752;48.266;7.402;2023-03-03T05:49:02;55.77;;;28.77;;
43146;SDS011;28752;48.266;7.402;2023-03-03T05:51:27;51.70;;;27.87;;
43146;SDS011;28752;48.266;7.402;2023-03-03T05:53:52;55.43;;;30.03;;
43146;SDS011;28752;48.266;7.402;2023-03-03T05:56:18;54.83;;;28.70;;
43146;SDS011;28752;48.266;7.402;2023-03-03T05:58:43;55.33;;;28.10;;
43146;SDS011;28752;48.266;7.402;2023-03-03T06:01:09;54.33;;;29.27;;
43146;SDS011;28752;48.266;7.402;2023-03-03T06:03:35;53.88;;;29.30;;
43146;SDS011;28752;48.266;7.402;2023-03-03T06:06:00;55.60;;;28.67;;
43146;SDS011;28752;48.266;7.402;2023-03-03T06:08:26;53.20;;;29.93;;
43146;SDS011;28752;48.266;7.402;2023-03-03T06:10:51;52.17;;;29.17;;
43146;SDS011;28752;48.266;7.402;2023-03-03T06:13:16;60.37;;;30.57;;
43146;SDS011;28752;48.266;7.402;2023-03-03T06:15:42;56.67;;;30.17;;
43146;SDS011;28752;48.266;7.402;2023-03-03T06:18:07;54.85;;;29.52;;
43146;SDS011;28752;48.266;7.402;2023-03-03T06:20:33;58.03;;;28.93;;
43146;SDS011;28752;48.266;7.402;2023-03-03T06:22:59;53.38;;;28.88;;
43146;SDS011;28752;48.266;7.402;2023-03-03T06:25:25;55.30;;;30.05;;
43146;SDS011;28752;48.266;7.402;2023-03-03T06:27:50;67.83;;;32.57;;
43146;SDS011;28752;48.266;7.402;2023-03-03T06:30:16;62.37;;;30.33;;
43146;SDS011;28752;48.266;7.402;2023-03-03T06:32:42;66.72;;;32.15;;
43146;SDS011;28752;48.266;7.402;2023-03-03T06:35:08;62.60;;;32.30;;
43146;SDS011;28752;48.266;7.402;2023-03-03T06:37:34;72.93;;;34.43;;
43146;SDS011;28752;48.266;7.402;2023-03-03T06:39:59;61.20;;;32.23;;
43146;SDS011;28752;48.266;7.402;2023-03-03T06:42:24;59.80;;;29.60;;
43146;SDS011;28752;48.266;7.402;2023-03-03T06:44:50;59.27;;;31.07;;
43146;SDS011;28752;48.266;7.402;2023-03-03T06:47:15;56.83;;;29.67;;
43146;SDS011;28752;48.266;7.402;2023-03-03T06:49:40;55.40;;;28.57;;
43146;SDS011;28752;48.266;7.402;2023-03-03T06:52:13;54.63;;;29.83;;
43146;SDS011;28752;48.266;7.402;2023-03-03T06:54:43;57.50;;;30.08;;
43146;SDS011;28752;48.266;7.402;2023-03-03T06:57:15;50.75;;;29.20;;
43146;SDS011;28752;48.266;7.402;2023-03-03T06:59:48;57.15;;;29.75;;
43146;SDS011;28752;48.266;7.402;2023-03-03T07:02:17;53.65;;;29.05;;
43146;SDS011;28752;48.266;7.402;2023-03-03T07:04:43;49.75;;;27.10;;
43146;SDS011;28752;48.266;7.402;2023-03-03T07:07:15;54.85;;;29.60;;
43146;SDS011;28752;48.266;7.402;2023-03-03T07:09:43;57.30;;;30.13;;
43146;SDS011;28752;48.266;7.402;2023-03-03T07:12:10;58.10;;;30.77;;
43146;SDS011;28752;48.266;7.402;2023-03-03T07:14:44;62.65;;;32.28;;
43146;SDS011;28752;48.266;7.402;2023-03-03T07:17:17;59.40;;;33.22;;
43146;SDS011;28752;48.266;7.402;2023-03-03T07:19:44;59.75;;;31.30;;
43146;SDS011;28752;48.266;7.402;2023-03-03T07:24:48;56.08;;;30.27;;
43146;SDS011;28752;48.266;7.402;2023-03-03T07:27:26;52.65;;;27.75;;
43146;SDS011;28752;48.266;7.402;2023-03-03T07:29:53;53.33;;;29.55;;
43146;SDS011;28752;48.266;7.402;2023-03-03T07:32:39;51.15;;;28.02;;
43146;SDS011;28752;48.266;7.402;2023-03-03T07:37:59;52.58;;;29.27;;
43146;SDS011;28752;48.266;7.402;2023-03-03T07:40:37;49.40;;;25.77;;
43146;SDS011;28752;48.266;7.402;2023-03-03T07:46:18;51.05;;;28.60;;
43146;SDS011;28752;48.266;7.402;2023-03-03T07:48:45;52.35;;;27.38;;
43146;SDS011;28752;48.266;7.402;2023-03-03T07:51:17;50.13;;;26.70;;
43146;SDS011;28752;48.266;7.402;2023-03-03T07:54:13;55.67;;;28.17;;
43146;SDS011;28752;48.266;7.402;2023-03-03T07:56:54;57.08;;;29.73;;
43146;SDS011;28752;48.266;7.402;2023-03-03T07:59:24;56.33;;;30.15;;
43146;SDS011;28752;48.266;7.402;2023-03-03T08:01:59;58.42;;;32.88;;
43146;SDS011;28752;48.266;7.402;2023-03-03T08:07:00;60.35;;;31.90;;
43146;SDS011;28752;48.266;7.402;2023-03-03T08:09:34;66.97;;;34.22;;
43146;SDS011;28752;48.266;7.402;2023-03-03T08:14:30;66.35;;;34.50;;
43146;SDS011;28752;48.266;7.402;2023-03-03T08:16:58;65.85;;;34.50;;
43146;SDS011;28752;48.266;7.402;2023-03-03T08:19:24;73.47;;;39.03;;
43146;SDS011;28752;48.266;7.402;2023-03-03T08:21:50;77.18;;;39.90;;
43146;SDS011;28752;48.266;7.402;2023-03-03T08:24:21;70.13;;;38.22;;
43146;SDS011;28752;48.266;7.402;2023-03-03T08:26:46;71.23;;;36.73;;
43146;SDS011;28752;48.266;7.402;2023-03-03T08:29:11;65.60;;;34.97;;
43146;SDS011;28752;48.266;7.402;2023-03-03T08:31:37;60.83;;;34.17;;
43146;SDS011;28752;48.266;7.402;2023-03-03T08:34:02;63.17;;;34.77;;
43146;SDS011;28752;48.266;7.402;2023-03-03T08:36:28;65.10;;;35.95;;
43146;SDS011;28752;48.266;7.402;2023-03-03T08:38:53;62.50;;;34.67;;
43146;SDS011;28752;48.266;7.402;2023-03-03T08:41:20;62.05;;;32.75;;
43146;SDS011;28752;48.266;7.402;2023-03-03T08:43:45;61.50;;;33.83;;
43146;SDS011;28752;48.266;7.402;2023-03-03T08:46:11;63.20;;;33.60;;
43146;SDS011;28752;48.266;7.402;2023-03-03T08:48:36;62.77;;;32.23;;
43146;SDS011;28752;48.266;7.402;2023-03-03T08:51:03;61.67;;;34.08;;
43146;SDS011;28752;48.266;7.402;2023-03-03T08:53:29;65.70;;;34.13;;
43146;SDS011;28752;48.266;7.402;2023-03-03T08:55:57;63.92;;;33.50;;
43146;SDS011;28752;48.266;7.402;2023-03-03T08:58:23;67.33;;;37.07;;
43146;SDS011;28752;48.266;7.402;2023-03-03T09:00:48;62.60;;;35.30;;
43146;SDS011;28752;48.266;7.402;2023-03-03T09:03:13;60.73;;;32.70;;
43146;SDS011;28752;48.266;7.402;2023-03-03T09:05:39;65.23;;;34.97;;
43146;SDS011;28752;48.266;7.402;2023-03-03T09:08:05;65.97;;;36.30;;
43146;SDS011;28752;48.266;7.402;2023-03-03T09:10:32;63.63;;;33.92;;
43146;SDS011;28752;48.266;7.402;2023-03-03T09:15:29;63.83;;;35.72;;
43146;SDS011;28752;48.266;7.402;2023-03-03T09:18:04;66.88;;;37.08;;
43146;SDS011;28752;48.266;7.402;2023-03-03T09:20:45;64.57;;;36.47;;
43146;SDS011;28752;48.266;7.402;2023-03-03T09:28:32;63.28;;;34.42;;
43146;SDS011;28752;48.266;7.402;2023-03-03T09:30:59;66.97;;;36.40;;
43146;SDS011;28752;48.266;7.402;2023-03-03T09:33:30;64.55;;;34.60;;
43146;SDS011;28752;48.266;7.402;2023-03-03T09:36:22;64.40;;;35.28;;
43146;SDS011;28752;48.266;7.402;2023-03-03T09:38:53;62.08;;;34.58;;
43146;SDS011;28752;48.266;7.402;2023-03-03T09:41:26;63.30;;;35.05;;
43146;SDS011;28752;48.266;7.402;2023-03-03T09:55:34;65.07;;;35.63;;
43146;SDS011;28752;48.266;7.402;2023-03-03T10:06:14;58.42;;;32.88;;
43146;SDS011;28752;48.266;7.402;2023-03-03T10:08:58;57.33;;;32.70;;
43146;SDS011;28752;48.266;7.402;2023-03-03T10:25:38;62.72;;;34.33;;
43146;SDS011;28752;48.266;7.402;2023-03-03T10:56:07;61.97;;;34.53;;
43146;SDS011;28752;48.266;7.402;2023-03-03T11:01:20;58.35;;;35.50;;
43146;SDS011;28752;48.266;7.402;2023-03-03T11:04:15;63.03;;;34.22;;
43146;SDS011;28752;48.266;7.402;2023-03-03T11:06:53;64.13;;;34.72;;
43146;SDS011;28752;48.266;7.402;2023-03-03T11:25:07;49.80;;;30.10;;
43146;SDS011;28752;48.266;7.402;2023-03-03T11:33:31;47.80;;;28.95;;
43146;SDS011;28752;48.266;7.402;2023-03-03T11:38:30;57.10;;;28.67;;
43146;SDS011;28752;48.266;7.402;2023-03-03T11:41:18;43.47;;;26.25;;
43146;SDS011;28752;48.266;7.402;2023-03-03T11:43:54;44.53;;;26.63;;
43146;SDS011;28752;48.266;7.402;2023-03-03T11:54:29;41.95;;;26.05;;
43146;SDS011;28752;48.266;7.402;2023-03-03T11:57:19;40.22;;;25.75;;
43146;SDS011;28752;48.266;7.402;2023-03-03T12:13:33;43.55;;;26.85;;
43146;SDS011;28752;48.266;7.402;2023-03-03T12:16:03;40.28;;;24.88;;
43146;SDS011;28752;48.266;7.402;2023-03-03T12:21:18;40.90;;;25.88;;
43146;SDS011;28752;48.266;7.402;2023-03-03T12:24:13;39.20;;;24.83;;
43146;SDS011;28752;48.266;7.402;2023-03-03T12:29:45;40.40;;;24.63;;
43146;SDS011;28752;48.266;7.402;2023-03-03T12:40:43;38.97;;;25.10;;
43146;SDS011;28752;48.266;7.402;2023-03-03T12:48:43;42.08;;;26.02;;
43146;SDS011;28752;48.266;7.402;2023-03-03T12:56:44;36.95;;;24.83;;
43146;SDS011;28752;48.266;7.402;2023-03-03T13:02:14;41.25;;;26.40;;
43146;SDS011;28752;48.266;7.402;2023-03-03T13:05:01;40.08;;;25.30;;
43146;SDS011;28752;48.266;7.402;2023-03-03T13:10:34;40.00;;;25.48;;
43146;SDS011;28752;48.266;7.402;2023-03-03T13:13:10;43.35;;;27.05;;
43146;SDS011;28752;48.266;7.402;2023-03-03T13:15:57;41.50;;;25.60;;
43146;SDS011;28752;48.266;7.402;2023-03-03T13:21:46;43.33;;;25.88;;
43146;SDS011;28752;48.266;7.402;2023-03-03T13:27:11;40.50;;;25.38;;
43146;SDS011;28752;48.266;7.402;2023-03-03T13:29:42;42.45;;;26.45;;
43146;SDS011;28752;48.266;7.402;2023-03-03T13:32:34;41.13;;;26.52;;
43146;SDS011;28752;48.266;7.402;2023-03-03T13:35:05;45.47;;;26.05;;
43146;SDS011;28752;48.266;7.402;2023-03-03T13:37:43;42.67;;;25.60;;
43146;SDS011;28752;48.266;7.402;2023-03-03T13:45:12;42.72;;;26.63;;
43146;SDS011;28752;48.266;7.402;2023-03-03T13:50:24;41.67;;;26.25;;
43146;SDS011;28752;48.266;7.402;2023-03-03T14:01:16;46.53;;;28.08;;
43146;SDS011;28752;48.266;7.402;2023-03-03T14:06:33;42.28;;;26.77;;
43146;SDS011;28752;48.266;7.402;2023-03-03T14:17:27;45.08;;;27.35;;
43146;SDS011;28752;48.266;7.402;2023-03-03T14:20:20;42.50;;;27.02;;
43146;SDS011;28752;48.266;7.402;2023-03-03T14:28:28;42.92;;;26.35;;
43146;SDS011;28752;48.266;7.402;2023-03-03T14:31:19;43.35;;;26.38;;
43146;SDS011;28752;48.266;7.402;2023-03-03T14:33:55;52.28;;;28.63;;
43146;SDS011;28752;48.266;7.402;2023-03-03T14:36:25;41.85;;;27.40;;
43146;SDS011;28752;48.266;7.402;2023-03-03T14:38:54;45.58;;;26.42;;
43146;SDS011;28752;48.266;7.402;2023-03-03T14:41:21;45.08;;;28.13;;
43146;SDS011;28752;48.266;7.402;2023-03-03T14:44:00;43.58;;;27.52;;
43146;SDS011;28752;48.266;7.402;2023-03-03T14:46:45;48.65;;;28.48;;
43146;SDS011;28752;48.266;7.402;2023-03-03T14:49:30;45.57;;;28.80;;
43146;SDS011;28752;48.266;7.402;2023-03-03T14:52:04;42.72;;;27.60;;
43146;SDS011;28752;48.266;7.402;2023-03-03T14:54:38;43.42;;;27.23;;
43146;SDS011;28752;48.266;7.402;2023-03-03T15:00:08;42.45;;;26.70;;
43146;SDS011;28752;48.266;7.402;2023-03-03T15:05:53;40.63;;;26.08;;
43146;SDS011;28752;48.266;7.402;2023-03-03T15:08:32;45.47;;;27.33;;
43146;SDS011;28752;48.266;7.402;2023-03-03T15:11:12;42.97;;;26.50;;
43146;SDS011;28752;48.266;7.402;2023-03-03T15:14:13;45.33;;;27.17;;
43146;SDS011;28752;48.266;7.402;2023-03-03T15:16:41;41.30;;;26.35;;
43146;SDS011;28752;48.266;7.402;2023-03-03T15:21:57;43.93;;;25.37;;
43146;SDS011;28752;48.266;7.402;2023-03-03T15:24:45;41.95;;;25.83;;
43146;SDS011;28752;48.266;7.402;2023-03-03T15:27:18;39.55;;;24.83;;
43146;SDS011;28752;48.266;7.402;2023-03-03T15:30:07;40.00;;;25.35;;
43146;SDS011;28752;48.266;7.402;2023-03-03T15:32:46;43.47;;;26.08;;
43146;SDS011;28752;48.266;7.402;2023-03-03T15:35:33;40.03;;;25.27;;
43146;SDS011;28752;48.266;7.402;2023-03-03T15:38:41;43.20;;;26.48;;
43146;SDS011;28752;48.266;7.402;2023-03-03T15:41:45;39.60;;;25.73;;
43146;SDS011;28752;48.266;7.402;2023-03-03T15:44:21;41.10;;;25.92;;
43146;SDS011;28752;48.266;7.402;2023-03-03T15:46:59;45.47;;;26.13;;
43146;SDS011;28752;48.266;7.402;2023-03-03T15:57:25;43.92;;;28.13;;
43146;SDS011;28752;48.266;7.402;2023-03-03T16:02:58;40.28;;;26.92;;
43146;SDS011;28752;48.266;7.402;2023-03-03T16:19:12;45.30;;;27.83;;
43146;SDS011;28752;48.266;7.402;2023-03-03T16:22:15;51.08;;;28.70;;
43146;SDS011;28752;48.266;7.402;2023-03-03T16:33:22;56.53;;;36.55;;
43146;SDS011;28752;48.266;7.402;2023-03-03T16:38:38;62.55;;;38.35;;
43146;SDS011;28752;48.266;7.402;2023-03-03T16:41:08;57.35;;;36.78;;
43146;SDS011;28752;48.266;7.402;2023-03-03T16:54:35;39.80;;;25.88;;
43146;SDS011;28752;48.266;7.402;2023-03-03T16:57:10;43.92;;;26.25;;
43146;SDS011;28752;48.266;7.402;2023-03-03T17:05:12;41.47;;;25.77;;
43146;SDS011;28752;48.266;7.402;2023-03-03T17:10:58;42.78;;;27.20;;
43146;SDS011;28752;48.266;7.402;2023-03-03T17:19:21;46.25;;;29.30;;
43146;SDS011;28752;48.266;7.402;2023-03-03T17:22:02;42.95;;;28.25;;
43146;SDS011;28752;48.266;7.402;2023-03-03T17:27:50;42.83;;;26.80;;
43146;SDS011;28752;48.266;7.402;2023-03-03T17:30:38;48.83;;;28.42;;
43146;SDS011;28752;48.266;7.402;2023-03-03T17:41:27;45.30;;;28.50;;
43146;SDS011;28752;48.266;7.402;2023-03-03T17:44:13;41.58;;;26.52;;
43146;SDS011;28752;48.266;7.402;2023-03-03T17:46:43;43.17;;;27.50;;
43146;SDS011;28752;48.266;7.402;2023-03-03T17:52:19;55.97;;;31.92;;
43146;SDS011;28752;48.266;7.402;2023-03-03T18:00:52;44.38;;;28.48;;
43146;SDS011;28752;48.266;7.402;2023-03-03T18:19:13;51.05;;;30.00;;
43146;SDS011;28752;48.266;7.402;2023-03-03T18:22:11;45.30;;;27.40;;
43146;SDS011;28752;48.266;7.402;2023-03-03T18:24:57;46.22;;;26.83;;
43146;SDS011;28752;48.266;7.402;2023-03-03T18:27:27;56.00;;;32.83;;
43146;SDS011;28752;48.266;7.402;2023-03-03T18:33:30;50.33;;;31.75;;
43146;SDS011;28752;48.266;7.402;2023-03-03T18:35:25;54.50;;;32.83;;
43146;SDS011;28752;48.266;7.402;2023-03-03T18:37:54;50.38;;;32.25;;
43146;SDS011;28752;48.266;7.402;2023-03-03T18:40:26;49.85;;;31.48;;
43146;SDS011;28752;48.266;7.402;2023-03-03T18:42:52;51.60;;;31.10;;
43146;SDS011;28752;48.266;7.402;2023-03-03T18:55:48;49.72;;;29.17;;
43146;SDS011;28752;48.266;7.402;2023-03-03T19:00:44;49.93;;;28.83;;
43146;SDS011;28752;48.266;7.402;2023-03-03T19:03:22;47.95;;;29.63;;
43146;SDS011;28752;48.266;7.402;2023-03-03T19:05:50;55.35;;;33.47;;
43146;SDS011;28752;48.266;7.402;2023-03-03T19:08:23;51.28;;;32.42;;
43146;SDS011;28752;48.266;7.402;2023-03-03T19:10:54;50.00;;;30.95;;
43146;SDS011;28752;48.266;7.402;2023-03-03T19:16:01;58.47;;;40.50;;
43146;SDS011;28752;48.266;7.402;2023-03-03T19:18:32;48.60;;;31.35;;
43146;SDS011;28752;48.266;7.402;2023-03-03T19:21:00;49.08;;;30.40;;
43146;SDS011;28752;48.266;7.402;2023-03-03T19:23:52;49.00;;;29.58;;
43146;SDS011;28752;48.266;7.402;2023-03-03T19:32:09;48.75;;;28.38;;
43146;SDS011;28752;48.266;7.402;2023-03-03T19:34:53;49.75;;;29.85;;
43146;SDS011;28752;48.266;7.402;2023-03-03T19:49:04;55.13;;;27.37;;
43146;SDS011;28752;48.266;7.402;2023-03-03T19:52:02;55.25;;;30.83;;
43146;SDS011;28752;48.266;7.402;2023-03-03T20:00:02;69.88;;;34.30;;
43146;SDS011;28752;48.266;7.402;2023-03-03T20:02:50;70.35;;;33.85;;
43146;SDS011;28752;48.266;7.402;2023-03-03T20:08:13;45.88;;;26.90;;
43146;SDS011;28752;48.266;7.402;2023-03-03T20:26:59;46.63;;;26.38;;
43146;SDS011;28752;48.266;7.402;2023-03-03T20:30:09;43.20;;;25.17;;
43146;SDS011;28752;48.266;7.402;2023-03-03T20:32:48;44.15;;;25.90;;
43146;SDS011;28752;48.266;7.402;2023-03-03T20:38:27;51.80;;;27.50;;
43146;SDS011;28752;48.266;7.402;2023-03-03T20:44:02;50.75;;;25.75;;
43146;SDS011;28752;48.266;7.402;2023-03-03T20:52:04;44.45;;;25.58;;
43146;SDS011;28752;48.266;7.402;2023-03-03T21:00:47;44.60;;;25.25;;
43146;SDS011;28752;48.266;7.402;2023-03-03T21:03:04;45.47;;;24.45;;
43146;SDS011;28752;48.266;7.402;2023-03-03T21:05:32;48.17;;;25.23;;
43146;SDS011;28752;48.266;7.402;2023-03-03T21:08:01;46.73;;;26.90;;
43146;SDS011;28752;48.266;7.402;2023-03-03T21:10:38;50.22;;;26.58;;
43146;SDS011;28752;48.266;7.402;2023-03-03T21:13:38;42.40;;;25.48;;
43146;SDS011;28752;48.266;7.402;2023-03-03T21:18:40;44.92;;;24.85;;
43146;SDS011;28752;48.266;7.402;2023-03-03T21:21:10;46.85;;;25.15;;
43146;SDS011;28752;48.266;7.402;2023-03-03T21:23:35;50.10;;;25.47;;
43146;SDS011;28752;48.266;7.402;2023-03-03T21:26:01;43.90;;;23.73;;
43146;SDS011;28752;48.266;7.402;2023-03-03T21:31:07;40.53;;;22.27;;
43146;SDS011;28752;48.266;7.402;2023-03-03T21:33:46;42.97;;;24.02;;
43146;SDS011;28752;48.266;7.402;2023-03-03T21:38:43;41.97;;;23.90;;
43146;SDS011;28752;48.266;7.402;2023-03-03T21:41:10;43.75;;;22.33;;
43146;SDS011;28752;48.266;7.402;2023-03-03T21:43:39;42.58;;;23.85;;
43146;SDS011;28752;48.266;7.402;2023-03-03T21:46:09;40.72;;;22.70;;
43146;SDS011;28752;48.266;7.402;2023-03-03T21:48:39;41.75;;;22.95;;
43146;SDS011;28752;48.266;7.402;2023-03-03T21:51:05;41.33;;;23.08;;
43146;SDS011;28752;48.266;7.402;2023-03-03T21:53:30;42.50;;;23.40;;
43146;SDS011;28752;48.266;7.402;2023-03-03T21:55:56;43.57;;;22.20;;